Hastings, Florida
Current Conditions -  °F | °C
As of 3:15 AM on Thursday 29 Jan 2015 (Local Time) from K28J Reporting Station
Clear Clear  
Wind Chill: 32°   Ceiling: Unl
Heat Index: 32°   Visibility: 10mi
Dew Point: 32°   Wind: 3mph
Humidity: 100%   Direction: 280°W
Pressure: 30.3"   Gusts: NA
Location:  29.72°N, 81.51°W
Report Text: K28J 290815Z AUTO 28003KT 10SM CLR 00/00 A3030 RMK AO2
Loading
Personal Weather Stations






























Interactive Weather Map New forecast layout! Learn more

10-Day Weather Forecast

Advertisements
Track Severe Weather on mobile